Hauptseite
METAR-TAF:

METAR-TAF

Flughäfen :

Braunschweig, Deutschland

Flughafen Braunschweig-Wolfsburg

Breite: 52-18N, Länge: 010-27E, Höhe: 81 m

Beobachtung

Neuester Wetterbericht von vor 37 Minuten, um 19:50 UTC
Wind 3 kt aus West
Temperatur 2°C
Luftfeuchtigkeit 93%
Luftdruck 1028 hPa
Sichtweite 10 km oder mehr
Geschlossene Wolkendecke in der Höhe von 2400 ft

METAR: EDVE 181950Z 26003KT 9999 OVC024 02/01 Q1028

Zeit: 21:27 (20:27 UTC)

Prognose

Neuester Wetterbericht von vor 3 Stunden und 27 Minuten, um 17:00 UTC
Gültige Prognose vom 18 um 18 UTC bis 18 um 21 UTC
Wind 3 kt aus unterschiedlichen Richtungen
Sichtweite 10 km oder mehr
Durchbrochene Bewölkung in der Höhe von 2500 ft

TAF: EDVE 181700Z 1818/1821 VRB03KT 9999 BKN025

Wetterbeobachtungen und Prognosen von mehr als 4000 Flughäfen (METAR und TAF Bericht).

Die verfügbaren Stationen werden durch gelbe und rote Markierungen auf der Karte dargestellt.

Führen Sie die Maus auf sie, um den Namen der Station zu sehen.

Darauf klicken, um die Beobachtung von Wetterbeobachtungen und Prognosen zu sehen.

Um die Karte zu ändern : klicken Sie auf den grünen Tasten mit einem schwarzen Kreuz Zum Vergrößern, auf den grünen Button mit einem Gedankenstrich zu verkleinern, oder auf die grünen Pfeile für benachbarte Karten.


METAR-TAF: